createdAt,value
2023-08-17T00:01:19.358Z,100867.81
2023-08-17T00:03:48.689Z,100879.75
2023-08-17T00:06:17.994Z,100882.78
2023-08-17T00:08:47.600Z,100884.47
2023-08-17T00:11:16.916Z,100876.44
2023-08-17T00:13:46.995Z,100870.50
2023-08-17T00:16:16.454Z,100874.56
2023-08-17T00:18:45.870Z,100876.59
2023-08-17T00:21:14.856Z,100885.28
2023-08-17T00:23:44.156Z,100880.63
2023-08-17T00:26:13.463Z,100885.75
2023-08-17T00:28:42.714Z,100879.94
2023-08-17T00:31:12.790Z,100883.69
2023-08-17T00:33:42.230Z,100888.25
2023-08-17T00:36:11.604Z,100892.81
2023-08-17T00:38:40.861Z,100895.50
2023-08-17T00:41:10.665Z,100892.63
2023-08-17T00:43:40.647Z,100889.22
2023-08-17T00:46:10.724Z,100883.56
2023-08-17T00:48:40.468Z,100877.25
2023-08-17T00:51:09.918Z,100872.28
2023-08-17T00:53:39.373Z,100856.47
2023-08-17T00:56:09.458Z,100856.13
2023-08-17T00:58:39.177Z,100854.78
2023-08-17T01:01:09.026Z,100860.06
2023-08-17T01:03:39.027Z,100855.63
2023-08-17T01:06:08.502Z,100843.19
2023-08-17T01:08:40.119Z,100840.09
2023-08-17T01:11:28.783Z,100837.81
2023-08-17T01:14:07.457Z,100835.19
2023-08-17T01:16:53.304Z,100824.41
2023-08-17T01:19:30.418Z,100828.31
2023-08-17T01:22:08.445Z,100850.91
2023-08-17T01:24:38.192Z,100851.63
2023-08-17T01:27:07.970Z,100836.34
2023-08-17T01:29:37.428Z,100835.63
2023-08-17T01:32:21.862Z,100842.88
2023-08-17T01:35:02.463Z,100838.28
2023-08-17T01:37:35.208Z,100840.50
2023-08-17T01:40:05.300Z,100850.66
2023-08-17T01:42:35.946Z,100842.41
2023-08-17T01:45:05.642Z,100844.34
2023-08-17T01:47:35.515Z,100850.22
2023-08-17T01:50:04.938Z,100852.97
2023-08-17T01:52:34.631Z,100846.16
2023-08-17T01:55:04.105Z,100844.19
2023-08-17T01:57:33.785Z,100837.28
2023-08-17T02:00:04.014Z,100826.88
2023-08-17T02:02:33.792Z,100828.31
2023-08-17T02:05:03.455Z,100827.03
2023-08-17T02:07:32.937Z,100828.06
2023-08-17T02:10:02.385Z,100841.09
2023-08-17T02:12:32.184Z,100853.81
2023-08-17T02:15:02.128Z,100851.38
2023-08-17T02:17:31.744Z,100847.56
2023-08-17T02:20:01.462Z,100841.31
2023-08-17T02:22:31.133Z,100850.75
2023-08-17T02:25:00.966Z,100845.50
2023-08-17T02:27:33.540Z,100848.09
2023-08-17T02:30:03.339Z,100856.25
2023-08-17T02:32:33.459Z,100850.22
2023-08-17T02:35:02.839Z,100839.09
2023-08-17T02:37:32.622Z,100834.38
2023-08-17T02:40:02.352Z,100827.09
2023-08-17T02:42:31.850Z,100829.38
2023-08-17T02:45:01.570Z,100837.81
2023-08-17T02:47:31.399Z,100844.09
2023-08-17T02:50:01.458Z,100849.69
2023-08-17T02:52:31.221Z,100853.13
2023-08-17T02:55:00.648Z,100849.09
2023-08-17T02:57:30.418Z,100854.06
2023-08-17T02:59:59.376Z,100862.06
2023-08-17T03:02:29.384Z,100859.63
2023-08-17T03:04:59.305Z,100858.44
2023-08-17T03:07:28.896Z,100864.16
2023-08-17T03:09:58.253Z,100857.03
2023-08-17T03:12:27.934Z,100850.00
2023-08-17T03:14:57.470Z,100853.84
2023-08-17T03:17:27.509Z,100857.97
2023-08-17T03:20:05.910Z,100862.09
2023-08-17T03:22:36.325Z,100859.50
2023-08-17T03:25:06.287Z,100865.97
2023-08-17T03:27:35.606Z,100867.25
2023-08-17T03:30:05.304Z,100874.34
2023-08-17T03:32:34.758Z,100882.16
2023-08-17T03:35:04.368Z,100885.06
2023-08-17T03:37:33.785Z,100883.06
2023-08-17T03:40:02.902Z,100886.56
2023-08-17T03:42:32.168Z,100884.88
2023-08-17T03:45:01.556Z,100886.09
2023-08-17T03:47:31.081Z,100891.53
2023-08-17T03:50:00.783Z,100895.38
2023-08-17T03:52:30.070Z,100897.22
2023-08-17T03:54:59.678Z,100901.03
2023-08-17T03:57:30.173Z,100901.19
2023-08-17T04:00:00.692Z,100912.00
2023-08-17T04:02:30.433Z,100913.47
2023-08-17T04:05:00.031Z,100910.63
2023-08-17T04:07:29.799Z,100909.44
2023-08-17T04:09:59.815Z,100915.97
2023-08-17T04:12:29.249Z,100917.56
2023-08-17T04:14:58.742Z,100917.44
2023-08-17T04:17:28.774Z,100918.13
2023-08-17T04:19:58.816Z,100917.69
2023-08-17T04:22:28.261Z,100925.34
2023-08-17T04:24:58.642Z,100917.88
2023-08-17T04:27:28.360Z,100931.81
2023-08-17T04:29:58.229Z,100931.56
2023-08-17T04:32:27.987Z,100928.78
2023-08-17T04:34:57.642Z,100934.94
2023-08-17T04:37:27.496Z,100927.19
2023-08-17T04:39:57.308Z,100928.91
2023-08-17T04:42:27.710Z,100921.78
2023-08-17T04:44:57.319Z,100935.19
2023-08-17T04:47:27.467Z,100930.38
2023-08-17T04:49:57.510Z,100938.16
2023-08-17T04:52:27.357Z,100942.81
2023-08-17T04:54:57.023Z,100942.97
2023-08-17T04:57:27.162Z,100943.19
2023-08-17T04:59:57.478Z,100941.50
2023-08-17T05:02:27.308Z,100944.41
2023-08-17T05:04:55.994Z,100948.59
2023-08-17T05:07:25.558Z,100947.84
2023-08-17T05:09:55.126Z,100948.75
2023-08-17T05:12:23.854Z,100952.78
2023-08-17T05:14:52.850Z,100952.78
2023-08-17T05:17:22.594Z,100956.59
2023-08-17T05:19:52.140Z,100954.28
2023-08-17T05:22:21.477Z,100957.34
2023-08-17T05:24:51.380Z,100964.59
2023-08-17T05:27:21.141Z,100949.75
2023-08-17T05:29:50.877Z,100936.69
2023-08-17T05:32:20.638Z,100939.75
2023-08-17T05:34:50.879Z,100955.03
2023-08-17T05:37:20.438Z,100949.63
2023-08-17T05:39:50.218Z,100935.72
2023-08-17T05:42:19.970Z,100941.97
2023-08-17T05:44:49.752Z,100952.56
2023-08-17T05:47:20.649Z,100947.88
2023-08-17T05:49:49.741Z,100930.06
2023-08-17T05:52:19.212Z,100940.03
2023-08-17T05:54:47.844Z,100940.97
2023-08-17T05:57:16.832Z,100934.72
2023-08-17T05:59:46.041Z,100934.13
2023-08-17T06:02:15.030Z,100930.66
2023-08-17T06:04:44.211Z,100934.34
2023-08-17T06:07:13.737Z,100943.47
2023-08-17T06:09:43.427Z,100943.69
2023-08-17T06:12:12.960Z,100941.97
2023-08-17T06:14:43.000Z,100941.97
2023-08-17T06:17:12.796Z,100937.56
2023-08-17T06:19:42.570Z,100937.44
2023-08-17T06:22:12.204Z,100941.34
2023-08-17T06:24:42.072Z,100936.94
2023-08-17T06:27:11.801Z,100940.97
2023-08-17T06:29:41.496Z,100942.16
2023-08-17T06:32:11.323Z,100943.63
2023-08-17T06:34:40.825Z,100944.88
2023-08-17T06:37:09.426Z,100944.09
2023-08-17T06:39:39.052Z,100937.72
2023-08-17T06:42:08.351Z,100938.47
2023-08-17T06:44:37.280Z,100937.34
2023-08-17T06:47:06.391Z,100934.28
2023-08-17T06:49:35.692Z,100934.28
2023-08-17T06:52:04.998Z,100941.53
2023-08-17T06:54:34.655Z,100926.44
2023-08-17T06:57:04.651Z,100930.09
2023-08-17T06:59:35.656Z,100932.06
2023-08-17T07:02:04.951Z,100923.97
2023-08-17T07:04:35.063Z,100939.34
2023-08-17T07:07:04.172Z,100929.59
2023-08-17T07:09:33.526Z,100928.66
2023-08-17T07:12:03.020Z,100917.22
2023-08-17T07:14:32.749Z,100928.88
2023-08-17T07:17:02.524Z,100929.88
2023-08-17T07:19:57.771Z,100926.41
2023-08-17T07:22:21.585Z,100924.91
2023-08-17T07:24:50.982Z,100913.88
2023-08-17T07:27:20.526Z,100911.41
2023-08-17T07:29:49.891Z,100915.31
2023-08-17T07:32:18.881Z,100920.94
2023-08-17T07:34:47.518Z,100914.19
2023-08-17T07:37:16.891Z,100917.13
2023-08-17T07:39:46.504Z,100921.03
2023-08-17T07:42:16.182Z,100915.88
2023-08-17T07:44:46.237Z,100916.97
2023-08-17T07:47:15.935Z,100912.28
2023-08-17T07:49:46.976Z,100913.59
2023-08-17T07:52:16.811Z,100906.44
2023-08-17T07:54:46.406Z,100900.19
2023-08-17T07:57:15.636Z,100906.56
2023-08-17T07:59:45.662Z,100899.44
2023-08-17T08:02:15.541Z,100902.38
2023-08-17T08:04:44.866Z,100896.34
2023-08-17T08:07:14.409Z,100897.44
2023-08-17T08:09:43.663Z,100901.13
2023-08-17T08:12:13.594Z,100893.25
2023-08-17T08:14:42.767Z,100885.38
2023-08-17T08:17:12.162Z,100888.19
2023-08-17T08:19:42.183Z,100874.94
2023-08-17T08:22:11.699Z,100881.44
2023-08-17T08:24:45.232Z,100883.38
2023-08-17T08:27:15.056Z,100880.94
2023-08-17T08:29:44.793Z,100877.25
2023-08-17T08:32:14.466Z,100875.53
2023-08-17T08:34:44.334Z,100872.06
2023-08-17T08:37:13.727Z,100870.34
2023-08-17T08:39:56.985Z,100865.44
2023-08-17T08:42:28.903Z,100865.66
2023-08-17T08:44:59.314Z,100857.69
2023-08-17T08:47:30.096Z,100861.44
2023-08-17T08:50:05.234Z,100849.94
2023-08-17T08:52:39.466Z,100865.34
2023-08-17T08:55:22.068Z,100866.44
2023-08-17T08:57:53.075Z,100862.03
2023-08-17T09:00:23.536Z,100853.09
2023-08-17T09:02:53.649Z,100850.50
2023-08-17T09:05:25.584Z,100844.25
2023-08-17T09:07:55.517Z,100847.19
2023-08-17T09:10:25.152Z,100842.75
2023-08-17T09:12:54.886Z,100837.47
2023-08-17T09:15:24.868Z,100838.53
2023-08-17T09:17:54.776Z,100842.47
2023-08-17T09:20:48.359Z,100836.53
2023-08-17T09:23:22.409Z,100836.53
2023-08-17T09:28:34.715Z,100837.94
2023-08-17T09:31:08.691Z,100839.91
2023-08-17T09:33:38.382Z,100840.25
2023-08-17T09:36:08.430Z,100838.63
2023-08-17T09:38:37.913Z,100840.56
2023-08-17T09:41:09.312Z,100841.63
2023-08-17T09:43:39.562Z,100836.47
2023-08-17T09:46:10.131Z,100828.72
2023-08-17T09:48:39.805Z,100829.81
2023-08-17T09:51:09.892Z,100827.00
2023-08-17T09:53:42.185Z,100825.28
2023-08-17T09:58:46.452Z,100814.72
2023-08-17T10:01:16.647Z,100807.59
2023-08-17T10:03:52.703Z,100814.97
2023-08-17T10:06:29.584Z,100808.94
2023-08-17T10:09:01.629Z,100803.66
2023-08-17T10:11:36.453Z,100812.59
2023-08-17T10:14:15.063Z,100812.69
2023-08-17T10:16:57.392Z,100808.28
2023-08-17T10:19:41.479Z,100811.09
2023-08-17T10:22:23.208Z,100806.56
2023-08-17T10:24:54.058Z,100804.19
2023-08-17T10:27:23.984Z,100805.38
2023-08-17T10:29:55.632Z,100805.50
2023-08-17T10:32:26.945Z,100798.41
2023-08-17T10:34:58.047Z,100802.03
2023-08-17T10:37:27.337Z,100798.41
2023-08-17T10:39:56.969Z,100802.03
2023-08-17T10:42:37.914Z,100804.84
2023-08-17T10:45:30.248Z,100806.69
2023-08-17T10:48:12.674Z,100799.69
2023-08-17T10:50:43.426Z,100801.63
2023-08-17T10:53:15.351Z,100798.41
2023-08-17T10:55:52.685Z,100802.19
2023-08-17T10:58:21.824Z,100793.56
2023-08-17T11:00:56.464Z,100796.66
2023-08-17T11:05:58.825Z,100794.63
2023-08-17T11:08:43.327Z,100808.94
2023-08-17T11:11:15.286Z,100801.72
2023-08-17T11:13:46.340Z,100808.31
2023-08-17T11:16:18.474Z,100809.59
2023-08-17T11:18:54.821Z,100819.28
2023-08-17T11:21:23.474Z,100811.97
2023-08-17T11:23:52.223Z,100814.22
2023-08-17T11:26:21.724Z,100814.22
2023-08-17T11:28:50.348Z,100812.41
2023-08-17T11:31:18.899Z,100814.31
2023-08-17T11:33:48.913Z,100812.72
2023-08-17T11:36:17.572Z,100809.91
2023-08-17T11:38:46.365Z,100806.03
2023-08-17T11:41:19.300Z,100813.34
2023-08-17T11:43:49.269Z,100809.91
2023-08-17T11:46:19.049Z,100810.88
2023-08-17T11:48:48.381Z,100811.28
2023-08-17T11:51:17.061Z,100817.75
2023-08-17T11:53:49.237Z,100814.94
2023-08-17T11:56:19.309Z,100815.25
2023-08-17T11:58:51.049Z,100819.69
2023-08-17T12:01:19.836Z,100813.72
2023-08-17T12:03:51.163Z,100822.69
2023-08-17T12:06:19.883Z,100823.44
2023-08-17T12:08:50.074Z,100827.84
2023-08-17T12:11:22.426Z,100826.13
2023-08-17T12:13:54.952Z,100823.00
2023-08-17T12:16:25.336Z,100818.25
2023-08-17T12:18:55.062Z,100826.66
2023-08-17T12:21:28.253Z,100830.44
2023-08-17T12:23:56.789Z,100833.97
2023-08-17T12:26:25.467Z,100839.25
2023-08-17T12:28:54.494Z,100842.06
2023-08-17T12:31:26.001Z,100848.47
2023-08-17T12:33:54.862Z,100843.22
2023-08-17T12:36:23.621Z,100846.88
2023-08-17T12:38:52.155Z,100850.53
2023-08-17T12:41:22.314Z,100850.91
2023-08-17T12:43:51.163Z,100846.41
2023-08-17T12:46:22.209Z,100856.22
2023-08-17T12:48:52.020Z,100856.97
2023-08-17T12:51:21.433Z,100855.25
2023-08-17T12:53:50.863Z,100863.50
2023-08-17T12:56:19.693Z,100865.56
2023-08-17T12:58:48.263Z,100858.41
2023-08-17T13:01:17.010Z,100870.16
2023-08-17T13:03:45.499Z,100866.59
2023-08-17T13:06:13.946Z,100875.72
2023-08-17T13:08:42.457Z,100872.38
2023-08-17T13:11:11.431Z,100871.53
2023-08-17T13:13:39.996Z,100875.16
2023-08-17T13:16:08.587Z,100876.00
2023-08-17T13:18:37.109Z,100882.28
2023-08-17T13:21:05.912Z,100881.50
2023-08-17T13:23:34.729Z,100876.13
2023-08-17T13:26:03.329Z,100876.22
2023-08-17T13:28:31.856Z,100879.00
2023-08-17T13:31:10.712Z,100878.25
2023-08-17T13:33:46.771Z,100884.59
2023-08-17T13:36:15.406Z,100885.44
2023-08-17T13:38:45.175Z,100882.00
2023-08-17T13:41:14.341Z,100878.34
2023-08-17T13:43:43.294Z,100882.00
2023-08-17T13:46:11.841Z,100880.38
2023-08-17T13:48:41.585Z,100883.16
2023-08-17T13:51:10.195Z,100883.25
2023-08-17T13:53:38.895Z,100875.69
2023-08-17T13:56:07.386Z,100879.63
2023-08-17T13:58:35.928Z,100878.97
2023-08-17T14:01:04.622Z,100879.94
2023-08-17T14:03:33.204Z,100877.13
2023-08-17T14:06:01.869Z,100874.34
2023-08-17T14:08:30.424Z,100878.56
2023-08-17T14:10:59.290Z,100881.72
2023-08-17T14:13:28.444Z,100887.00
2023-08-17T14:16:00.214Z,100881.41
2023-08-17T14:18:29.602Z,100887.69
2023-08-17T14:20:59.360Z,100889.28
2023-08-17T14:23:28.849Z,100884.78
2023-08-17T14:25:58.192Z,100877.50
2023-08-17T14:28:29.280Z,100883.50
2023-08-17T14:30:59.029Z,100882.66
2023-08-17T14:33:28.793Z,100882.56
2023-08-17T14:35:58.219Z,100878.81
2023-08-17T14:38:31.688Z,100876.91
2023-08-17T14:41:01.913Z,100884.66
2023-08-17T14:43:31.671Z,100883.41
2023-08-17T14:46:01.158Z,100885.56
2023-08-17T14:48:31.103Z,100888.81
2023-08-17T14:51:00.683Z,100892.06
2023-08-17T14:53:30.404Z,100890.94
2023-08-17T14:55:59.143Z,100888.72
2023-08-17T14:58:28.278Z,100889.72
2023-08-17T15:00:57.131Z,100885.75
2023-08-17T15:03:26.919Z,100891.59
2023-08-17T15:05:56.483Z,100886.63
2023-08-17T15:08:25.958Z,100890.75
2023-08-17T15:10:55.836Z,100886.88
2023-08-17T15:13:25.293Z,100891.09
2023-08-17T15:15:54.195Z,100886.38
2023-08-17T15:18:24.652Z,100888.63
2023-08-17T15:20:53.617Z,100893.81
2023-08-17T15:23:22.664Z,100898.34
2023-08-17T15:25:52.198Z,100894.13
2023-08-17T15:28:21.865Z,100900.25
2023-08-17T15:31:04.167Z,100893.34
2023-08-17T15:33:33.864Z,100898.00
2023-08-17T15:36:03.356Z,100898.97
2023-08-17T15:38:33.070Z,100900.47
2023-08-17T15:41:02.901Z,100904.25
2023-08-17T15:43:32.573Z,100902.97
2023-08-17T15:46:02.178Z,100902.50
2023-08-17T15:48:32.118Z,100904.50
2023-08-17T15:51:01.905Z,100901.16
2023-08-17T15:53:31.750Z,100899.78
2023-08-17T15:56:01.693Z,100901.06
2023-08-17T15:58:31.152Z,100905.38
2023-08-17T16:01:00.985Z,100902.50
2023-08-17T16:03:29.968Z,100898.56
2023-08-17T16:05:59.762Z,100899.00
2023-08-17T16:08:47.526Z,100901.78
2023-08-17T16:11:18.860Z,100894.66
2023-08-17T16:13:48.578Z,100904.81
2023-08-17T16:16:17.692Z,100901.53
2023-08-17T16:18:47.073Z,100899.38
2023-08-17T16:21:16.622Z,100897.19
2023-08-17T16:23:45.851Z,100906.56
2023-08-17T16:26:16.134Z,100900.59
2023-08-17T16:31:20.883Z,100908.16
2023-08-17T16:33:50.487Z,100904.78
2023-08-17T16:36:20.363Z,100906.91
2023-08-17T16:41:24.573Z,100900.84
2023-08-17T16:43:54.107Z,100909.47
2023-08-17T16:46:24.652Z,100904.44
2023-08-17T16:48:54.142Z,100906.75
2023-08-17T16:51:23.951Z,100910.09
2023-08-17T16:53:53.747Z,100902.38
2023-08-17T16:56:24.123Z,100909.38
2023-08-17T16:58:53.945Z,100903.28
2023-08-17T17:01:23.635Z,100911.13
2023-08-17T17:03:53.396Z,100907.34
2023-08-17T17:06:23.862Z,100905.13
2023-08-17T17:08:52.949Z,100908.84
2023-08-17T17:11:23.066Z,100902.59
2023-08-17T17:13:52.120Z,100905.06
2023-08-17T17:16:23.100Z,100915.44
2023-08-17T17:18:53.564Z,100911.47
2023-08-17T17:21:22.877Z,100904.13
2023-08-17T17:23:52.129Z,100907.56
2023-08-17T17:26:23.216Z,100905.34
2023-08-17T17:28:52.358Z,100905.84
2023-08-17T17:31:21.225Z,100895.88
2023-08-17T17:33:50.556Z,100898.47
2023-08-17T17:36:20.331Z,100900.63
2023-08-17T17:38:49.644Z,100904.09
2023-08-17T17:41:19.434Z,100892.34
2023-08-17T17:43:49.731Z,100898.22
2023-08-17T17:46:21.585Z,100889.59
2023-08-17T17:48:50.941Z,100888.34
2023-08-17T17:51:19.998Z,100892.84
2023-08-17T17:53:49.258Z,100880.38
2023-08-17T17:56:18.394Z,100874.34
2023-08-17T17:58:47.201Z,100875.25
2023-08-17T18:01:17.003Z,100871.75
2023-08-17T18:03:47.986Z,100880.50
2023-08-17T18:06:18.049Z,100868.00
2023-08-17T18:08:47.504Z,100865.63
2023-08-17T18:11:16.735Z,100873.94
2023-08-17T18:13:46.036Z,100866.25
2023-08-17T18:16:15.106Z,100857.47
2023-08-17T18:18:44.221Z,100854.66
2023-08-17T18:21:13.404Z,100856.28
2023-08-17T18:23:42.801Z,100859.16
2023-08-17T18:26:12.146Z,100858.84
2023-08-17T18:28:41.454Z,100849.03
2023-08-17T18:31:11.562Z,100848.03
2023-08-17T18:33:40.288Z,100845.94
2023-08-17T18:36:10.035Z,100837.69
2023-08-17T18:38:39.783Z,100839.25
2023-08-17T18:41:12.789Z,100835.81
2023-08-17T18:43:42.138Z,100835.97
2023-08-17T18:46:12.029Z,100832.50
2023-08-17T18:48:41.734Z,100825.06
2023-08-17T18:51:11.520Z,100823.22
2023-08-17T18:53:40.986Z,100827.34
2023-08-17T18:56:10.363Z,100815.72
2023-08-17T18:58:39.533Z,100814.69
2023-08-17T19:01:08.054Z,100815.50
2023-08-17T19:03:36.785Z,100806.00
2023-08-17T19:06:05.680Z,100809.56
2023-08-17T19:08:34.599Z,100814.38
2023-08-17T19:11:03.290Z,100816.34
2023-08-17T19:13:32.387Z,100813.31
2023-08-17T19:16:01.212Z,100806.66
2023-08-17T19:18:30.070Z,100806.97
2023-08-17T19:20:58.901Z,100805.63
2023-08-17T19:23:27.719Z,100803.50
2023-08-17T19:25:56.903Z,100798.81
2023-08-17T19:28:25.646Z,100792.69
2023-08-17T19:30:54.412Z,100801.31
2023-08-17T19:33:23.169Z,100786.19
2023-08-17T19:35:52.184Z,100788.28
2023-08-17T19:38:20.916Z,100791.94
2023-08-17T19:40:49.746Z,100778.19
2023-08-17T19:43:18.513Z,100774.69
2023-08-17T19:45:47.570Z,100775.28
2023-08-17T19:48:16.310Z,100769.00
2023-08-17T19:50:45.641Z,100767.47
2023-08-17T19:53:15.053Z,100765.47
2023-08-17T19:55:44.516Z,100759.84
2023-08-17T19:58:15.188Z,100761.78
2023-08-17T20:00:44.692Z,100759.25
2023-08-17T20:03:14.478Z,100758.78
2023-08-17T20:05:44.028Z,100762.56
2023-08-17T20:08:13.819Z,100758.47
2023-08-17T20:10:43.839Z,100753.38
2023-08-17T20:13:13.434Z,100757.81
2023-08-17T20:15:43.090Z,100759.88
2023-08-17T20:18:13.956Z,100753.41
2023-08-17T20:20:57.898Z,100755.63
2023-08-17T20:23:27.835Z,100756.81
2023-08-17T20:25:57.923Z,100748.09
2023-08-17T20:28:28.774Z,100750.34
2023-08-17T20:31:00.614Z,100748.28
2023-08-17T20:33:30.421Z,100752.91
2023-08-17T20:35:59.912Z,100751.34
2023-08-17T20:38:29.146Z,100752.00
2023-08-17T20:40:58.927Z,100749.28
2023-08-17T20:43:28.692Z,100753.81
2023-08-17T20:45:58.255Z,100747.63
2023-08-17T20:48:27.195Z,100747.44
2023-08-17T20:50:57.568Z,100746.38
2023-08-17T20:53:29.982Z,100746.03
2023-08-17T20:55:59.773Z,100740.53
2023-08-17T20:58:28.538Z,100738.50
2023-08-17T21:00:57.339Z,100736.72
2023-08-17T21:03:26.161Z,100740.72
2023-08-17T21:05:55.274Z,100736.53
2023-08-17T21:08:23.990Z,100723.88
2023-08-17T21:10:52.766Z,100734.81
2023-08-17T21:13:22.100Z,100728.69
2023-08-17T21:15:50.857Z,100733.00
2023-08-17T21:18:21.336Z,100728.44
2023-08-17T21:20:50.034Z,100726.50
2023-08-17T21:23:18.589Z,100727.34
2023-08-17T21:25:56.630Z,100720.59
2023-08-17T21:28:25.302Z,100728.81
2023-08-17T21:30:54.047Z,100727.88
2023-08-17T21:33:22.635Z,100724.31
2023-08-17T21:35:55.520Z,100723.69
2023-08-17T21:38:24.087Z,100726.53
2023-08-17T21:41:00.753Z,100730.69
2023-08-17T21:43:33.074Z,100732.28
2023-08-17T21:46:02.858Z,100720.03
2023-08-17T21:48:31.466Z,100720.41
2023-08-17T21:51:00.064Z,100713.88
2023-08-17T21:53:28.680Z,100711.06
2023-08-17T21:55:57.277Z,100716.41
2023-08-17T21:58:25.876Z,100709.81
2023-08-17T22:00:54.523Z,100710.63
2023-08-17T22:03:23.237Z,100706.91
2023-08-17T22:05:52.012Z,100707.31
2023-08-17T22:08:20.711Z,100701.25
2023-08-17T22:10:50.720Z,100710.50
2023-08-17T22:13:19.329Z,100716.78
2023-08-17T22:15:48.021Z,100708.06
2023-08-17T22:18:16.925Z,100706.03
2023-08-17T22:20:45.991Z,100704.53
2023-08-17T22:23:15.185Z,100700.44
2023-08-17T22:25:43.740Z,100707.25
2023-08-17T22:28:12.315Z,100705.13
2023-08-17T22:30:40.987Z,100712.47
2023-08-17T22:33:09.645Z,100704.59
2023-08-17T22:35:38.170Z,100709.19
2023-08-17T22:38:06.897Z,100700.94
2023-08-17T22:40:35.468Z,100706.72
2023-08-17T22:43:04.122Z,100698.16
2023-08-17T22:45:32.622Z,100707.19
2023-08-17T22:48:01.744Z,100700.69
2023-08-17T22:50:30.269Z,100705.50
2023-08-17T22:52:59.156Z,100700.13
2023-08-17T22:55:27.664Z,100696.03
2023-08-17T22:57:56.406Z,100698.09
2023-08-17T23:00:24.920Z,100692.44
2023-08-17T23:02:53.613Z,100693.63
2023-08-17T23:05:22.213Z,100698.31
2023-08-17T23:07:50.828Z,100686.41
2023-08-17T23:10:19.382Z,100696.34
2023-08-17T23:12:48.302Z,100703.16
2023-08-17T23:15:16.878Z,100691.94
2023-08-17T23:17:46.092Z,100699.22
2023-08-17T23:20:15.179Z,100699.72
2023-08-17T23:22:44.111Z,100703.09
2023-08-17T23:25:12.983Z,100704.22
2023-08-17T23:27:42.062Z,100707.84
2023-08-17T23:30:12.224Z,100714.75
2023-08-17T23:32:40.945Z,100708.66
2023-08-17T23:35:10.101Z,100711.22
2023-08-17T23:37:38.742Z,100719.88
2023-08-17T23:40:09.255Z,100720.00
2023-08-17T23:42:37.823Z,100711.22
2023-08-17T23:45:07.897Z,100713.25
2023-08-17T23:47:36.885Z,100713.28
2023-08-17T23:50:07.105Z,100724.28
2023-08-17T23:52:35.727Z,100712.78
2023-08-17T23:55:05.479Z,100716.47
2023-08-17T23:57:34.270Z,100715.47
